sensor_id;sensor_type;location;lat;lon;timestamp;noise_LAeq;noise_LA_min;noise_LA_max;noise_LA01;noise_LA95
78074;Laerm;67283;50.960;13.856;2023-09-07T12:49:06;59.40;40.67;77.10;;
78074;Laerm;67283;50.960;13.856;2023-09-07T12:51:32;58.55;40.54;69.35;;
78074;Laerm;67283;50.960;13.856;2023-09-07T12:53:57;59.40;37.45;74.42;;
78074;Laerm;67283;50.960;13.856;2023-09-07T12:56:22;61.91;39.41;75.71;;
78074;Laerm;67283;50.960;13.856;2023-09-07T12:58:48;64.46;41.15;80.53;;
78074;Laerm;67283;50.960;13.856;2023-09-07T13:01:14;64.23;42.07;73.33;;
78074;Laerm;67283;50.960;13.856;2023-09-07T13:03:41;60.35;35.72;71.05;;
78074;Laerm;67283;50.960;13.856;2023-09-07T13:06:07;60.93;38.56;72.93;;
78074;Laerm;67283;50.960;13.856;2023-09-07T13:08:32;60.74;37.76;72.84;;
78074;Laerm;67283;50.960;13.856;2023-09-07T13:10:58;60.27;40.34;72.22;;
78074;Laerm;67283;50.960;13.856;2023-09-07T13:13:23;60.63;32.42;71.34;;
78074;Laerm;67283;50.960;13.856;2023-09-07T13:15:56;61.13;36.02;71.75;;
78074;Laerm;67283;50.960;13.856;2023-09-07T13:18:22;62.06;39.86;71.78;;
78074;Laerm;67283;50.960;13.856;2023-09-07T13:20:47;63.83;42.98;78.12;;
78074;Laerm;67283;50.960;13.856;2023-09-07T13:23:15;62.47;39.35;77.93;;
78074;Laerm;67283;50.960;13.856;2023-09-07T13:25:40;64.72;31.70;81.43;;
78074;Laerm;67283;50.960;13.856;2023-09-07T13:28:06;63.58;43.18;76.88;;
78074;Laerm;67283;50.960;13.856;2023-09-07T13:30:31;62.09;37.22;72.51;;
78074;Laerm;67283;50.960;13.856;2023-09-07T13:32:56;63.35;35.55;76.74;;
78074;Laerm;67283;50.960;13.856;2023-09-07T13:35:22;61.54;30.49;73.97;;
78074;Laerm;67283;50.960;13.856;2023-09-07T13:37:47;62.08;31.33;77.78;;
78074;Laerm;67283;50.960;13.856;2023-09-07T13:40:12;62.54;30.99;77.92;;
78074;Laerm;67283;50.960;13.856;2023-09-07T13:42:40;60.79;33.98;70.80;;
78074;Laerm;67283;50.960;13.856;2023-09-07T13:45:05;60.73;33.77;71.57;;
78074;Laerm;67283;50.960;13.856;2023-09-07T13:47:31;60.51;37.97;74.77;;
78074;Laerm;67283;50.960;13.856;2023-09-07T13:49:56;62.02;38.23;73.24;;
78074;Laerm;67283;50.960;13.856;2023-09-07T13:52:22;66.26;31.23;81.91;;
78074;Laerm;67283;50.960;13.856;2023-09-07T13:54:47;60.34;32.77;72.31;;
78074;Laerm;67283;50.960;13.856;2023-09-07T13:57:12;59.50;31.37;72.61;;
78074;Laerm;67283;50.960;13.856;2023-09-07T13:59:38;66.39;32.70;78.97;;
78074;Laerm;67283;50.960;13.856;2023-09-07T14:02:03;62.25;32.98;74.06;;
78074;Laerm;67283;50.960;13.856;2023-09-07T14:04:29;61.28;32.91;72.58;;
78074;Laerm;67283;50.960;13.856;2023-09-07T14:06:56;63.76;35.02;75.65;;
78074;Laerm;67283;50.960;13.856;2023-09-07T14:09:21;61.09;34.55;75.34;;
78074;Laerm;67283;50.960;13.856;2023-09-07T14:11:48;60.28;31.71;71.24;;
78074;Laerm;67283;50.960;13.856;2023-09-07T14:14:13;61.97;34.11;79.51;;
78074;Laerm;67283;50.960;13.856;2023-09-07T14:16:40;63.12;43.84;71.28;;
78074;Laerm;67283;50.960;13.856;2023-09-07T14:19:06;62.08;34.24;74.93;;
78074;Laerm;67283;50.960;13.856;2023-09-07T14:21:31;58.59;32.62;68.77;;
78074;Laerm;67283;50.960;13.856;2023-09-07T14:23:56;62.27;34.88;73.01;;
78074;Laerm;67283;50.960;13.856;2023-09-07T14:26:22;65.94;41.66;81.80;;
78074;Laerm;67283;50.960;13.856;2023-09-07T14:28:47;62.10;34.49;71.31;;
78074;Laerm;67283;50.960;13.856;2023-09-07T14:31:13;60.19;36.33;74.82;;
78074;Laerm;67283;50.960;13.856;2023-09-07T14:33:38;61.17;40.90;76.84;;
78074;Laerm;67283;50.960;13.856;2023-09-07T14:36:04;60.64;38.13;73.64;;
78074;Laerm;67283;50.960;13.856;2023-09-07T14:38:30;57.92;32.41;68.38;;
78074;Laerm;67283;50.960;13.856;2023-09-07T14:40:56;61.28;35.37;72.12;;
78074;Laerm;67283;50.960;13.856;2023-09-07T14:43:21;62.15;33.29;71.82;;
78074;Laerm;67283;50.960;13.856;2023-09-07T14:45:47;60.41;31.17;75.82;;
78074;Laerm;67283;50.960;13.856;2023-09-07T14:48:13;59.20;30.74;69.60;;
78074;Laerm;67283;50.960;13.856;2023-09-07T14:50:39;58.40;30.88;69.71;;
78074;Laerm;67283;50.960;13.856;2023-09-07T14:53:04;57.49;35.58;70.54;;
78074;Laerm;67283;50.960;13.856;2023-09-07T14:55:31;54.33;31.45;69.23;;
78074;Laerm;67283;50.960;13.856;2023-09-07T14:57:57;63.71;39.94;76.86;;
78074;Laerm;67283;50.960;13.856;2023-09-07T15:00:23;60.28;37.37;69.86;;
78074;Laerm;67283;50.960;13.856;2023-09-07T15:02:49;59.27;37.21;72.38;;
78074;Laerm;67283;50.960;13.856;2023-09-07T15:05:15;56.37;34.75;70.30;;
78074;Laerm;67283;50.960;13.856;2023-09-07T15:07:40;65.35;46.22;78.72;;
78074;Laerm;67283;50.960;13.856;2023-09-07T15:10:06;65.86;49.86;80.83;;
78074;Laerm;67283;50.960;13.856;2023-09-07T15:12:31;56.68;34.64;71.49;;
78074;Laerm;67283;50.960;13.856;2023-09-07T15:14:57;60.35;38.21;74.91;;
78074;Laerm;67283;50.960;13.856;2023-09-07T15:17:22;60.33;39.62;71.93;;
78074;Laerm;67283;50.960;13.856;2023-09-07T15:19:48;58.31;39.23;69.61;;
78074;Laerm;67283;50.960;13.856;2023-09-07T15:22:13;58.99;34.02;73.68;;
78074;Laerm;67283;50.960;13.856;2023-09-07T15:24:38;58.14;37.43;69.43;;
78074;Laerm;67283;50.960;13.856;2023-09-07T15:27:07;59.92;34.07;69.45;;
78074;Laerm;67283;50.960;13.856;2023-09-07T15:29:33;59.66;34.88;74.92;;
78074;Laerm;67283;50.960;13.856;2023-09-07T15:31:58;60.05;35.39;76.87;;
78074;Laerm;67283;50.960;13.856;2023-09-07T15:34:23;54.07;31.61;68.87;;
78074;Laerm;67283;50.960;13.856;2023-09-07T15:36:49;60.86;32.85;75.31;;
78074;Laerm;67283;50.960;13.856;2023-09-07T15:39:14;52.44;31.20;70.81;;
78074;Laerm;67283;50.960;13.856;2023-09-07T15:41:40;61.59;32.94;79.05;;
78074;Laerm;67283;50.960;13.856;2023-09-07T15:44:05;63.08;41.89;76.66;;
78074;Laerm;67283;50.960;13.856;2023-09-07T15:46:30;59.12;38.49;70.07;;
78074;Laerm;67283;50.960;13.856;2023-09-07T15:48:56;59.39;40.83;70.19;;
78074;Laerm;67283;50.960;13.856;2023-09-07T15:51:22;60.11;38.65;69.89;;
78074;Laerm;67283;50.960;13.856;2023-09-07T15:53:47;55.56;35.26;68.11;;
78074;Laerm;67283;50.960;13.856;2023-09-07T15:56:13;60.53;36.81;72.08;;
78074;Laerm;67283;50.960;13.856;2023-09-07T15:58:38;58.74;39.93;69.71;;
78074;Laerm;67283;50.960;13.856;2023-09-07T16:01:03;57.84;37.74;74.69;;
78074;Laerm;67283;50.960;13.856;2023-09-07T16:03:29;59.20;36.26;72.97;;
78074;Laerm;67283;50.960;13.856;2023-09-07T16:05:54;57.19;31.61;69.82;;
78074;Laerm;67283;50.960;13.856;2023-09-07T16:08:20;57.66;30.95;70.32;;
78074;Laerm;67283;50.960;13.856;2023-09-07T16:10:46;60.02;30.48;72.48;;
78074;Laerm;67283;50.960;13.856;2023-09-07T16:13:11;59.76;33.26;71.72;;
78074;Laerm;67283;50.960;13.856;2023-09-07T16:15:37;58.63;36.16;69.63;;
78074;Laerm;67283;50.960;13.856;2023-09-07T16:18:02;62.25;33.91;77.31;;
78074;Laerm;67283;50.960;13.856;2023-09-07T16:20:28;61.60;34.10;76.53;;
78074;Laerm;67283;50.960;13.856;2023-09-07T16:22:53;56.95;33.71;70.34;;
78074;Laerm;67283;50.960;13.856;2023-09-07T16:25:18;59.51;31.98;75.12;;
78074;Laerm;67283;50.960;13.856;2023-09-07T16:27:44;61.58;31.90;78.23;;
78074;Laerm;67283;50.960;13.856;2023-09-07T16:30:12;65.33;33.17;79.25;;
78074;Laerm;67283;50.960;13.856;2023-09-07T16:32:37;61.83;31.57;76.26;;
78074;Laerm;67283;50.960;13.856;2023-09-07T16:35:06;59.36;36.14;73.87;;
78074;Laerm;67283;50.960;13.856;2023-09-07T16:37:31;60.91;35.39;73.32;;
78074;Laerm;67283;50.960;13.856;2023-09-07T16:39:56;59.36;35.97;76.43;;
78074;Laerm;67283;50.960;13.856;2023-09-07T16:42:22;61.23;32.26;74.95;;
78074;Laerm;67283;50.960;13.856;2023-09-07T16:44:51;62.22;30.43;77.52;;
78074;Laerm;67283;50.960;13.856;2023-09-07T16:47:17;60.32;31.11;74.76;;
78074;Laerm;67283;50.960;13.856;2023-09-07T16:49:42;59.18;31.16;75.44;;
78074;Laerm;67283;50.960;13.856;2023-09-07T16:52:08;53.09;30.25;73.75;;
78074;Laerm;67283;50.960;13.856;2023-09-07T16:54:34;48.73;30.38;68.56;;
78074;Laerm;67283;50.960;13.856;2023-09-07T16:57:00;56.47;33.42;69.09;;
78074;Laerm;67283;50.960;13.856;2023-09-07T16:59:25;61.99;30.51;79.81;;
78074;Laerm;67283;50.960;13.856;2023-09-07T17:01:50;57.35;30.72;74.26;;
78074;Laerm;67283;50.960;13.856;2023-09-07T17:04:23;59.41;35.56;70.85;;
78074;Laerm;67283;50.960;13.856;2023-09-07T17:06:49;63.59;35.66;78.33;;
78074;Laerm;67283;50.960;13.856;2023-09-07T17:09:14;57.00;30.21;70.44;;
78074;Laerm;67283;50.960;13.856;2023-09-07T17:11:40;54.25;34.03;66.14;;
78074;Laerm;67283;50.960;13.856;2023-09-07T17:14:05;58.58;31.63;69.34;;
78074;Laerm;67283;50.960;13.856;2023-09-07T17:16:30;61.29;30.23;78.74;;
78074;Laerm;67283;50.960;13.856;2023-09-07T17:18:56;60.81;32.04;77.53;;
78074;Laerm;67283;50.960;13.856;2023-09-07T17:21:22;57.99;39.03;67.70;;
78074;Laerm;67283;50.960;13.856;2023-09-07T17:23:47;47.11;29.87;60.98;;
78074;Laerm;67283;50.960;13.856;2023-09-07T17:26:14;53.50;30.73;67.61;;
78074;Laerm;67283;50.960;13.856;2023-09-07T17:28:39;58.09;34.74;70.85;;
78074;Laerm;67283;50.960;13.856;2023-09-07T17:31:11;61.21;32.18;75.35;;
78074;Laerm;67283;50.960;13.856;2023-09-07T17:33:37;56.90;32.11;69.82;;
78074;Laerm;67283;50.960;13.856;2023-09-07T17:36:02;56.01;34.08;67.66;;
78074;Laerm;67283;50.960;13.856;2023-09-07T17:38:28;60.59;33.26;77.07;;
78074;Laerm;67283;50.960;13.856;2023-09-07T17:40:53;56.18;31.06;70.41;;
78074;Laerm;67283;50.960;13.856;2023-09-07T17:43:18;57.60;30.96;71.53;;
78074;Laerm;67283;50.960;13.856;2023-09-07T17:45:44;52.51;30.95;67.32;;
78074;Laerm;67283;50.960;13.856;2023-09-07T17:48:09;58.78;31.57;71.91;;
78074;Laerm;67283;50.960;13.856;2023-09-07T17:50:34;34.63;30.85;55.17;;
78074;Laerm;67283;50.960;13.856;2023-09-07T17:53:00;53.25;31.42;69.53;;
78074;Laerm;67283;50.960;13.856;2023-09-07T17:55:26;55.31;31.05;71.88;;
78074;Laerm;67283;50.960;13.856;2023-09-07T17:57:52;54.82;32.52;69.78;;
78074;Laerm;67283;50.960;13.856;2023-09-07T18:00:17;55.22;31.78;68.86;;
78074;Laerm;67283;50.960;13.856;2023-09-07T18:02:43;36.73;30.95;57.67;;
78074;Laerm;67283;50.960;13.856;2023-09-07T18:05:09;53.50;30.74;70.09;;
78074;Laerm;67283;50.960;13.856;2023-09-07T18:07:35;57.62;31.53;68.82;;
78074;Laerm;67283;50.960;13.856;2023-09-07T18:10:01;53.65;34.57;65.96;;
78074;Laerm;67283;50.960;13.856;2023-09-07T18:12:26;56.02;31.56;70.37;;
78074;Laerm;67283;50.960;13.856;2023-09-07T18:14:53;56.25;31.49;67.72;;
78074;Laerm;67283;50.960;13.856;2023-09-07T18:17:18;55.54;31.16;71.26;;
78074;Laerm;67283;50.960;13.856;2023-09-07T18:19:44;52.00;31.36;68.32;;
78074;Laerm;67283;50.960;13.856;2023-09-07T18:22:09;59.51;33.04;71.89;;
78074;Laerm;67283;50.960;13.856;2023-09-07T18:24:35;56.77;31.41;68.49;;
78074;Laerm;67283;50.960;13.856;2023-09-07T18:27:01;55.69;30.96;69.37;;
78074;Laerm;67283;50.960;13.856;2023-09-07T18:29:27;57.44;32.19;71.03;;
78074;Laerm;67283;50.960;13.856;2023-09-07T18:31:53;57.32;32.39;69.23;;
78074;Laerm;67283;50.960;13.856;2023-09-07T18:34:19;53.20;30.62;69.55;;
78074;Laerm;67283;50.960;13.856;2023-09-07T18:36:44;55.61;30.99;71.64;;
78074;Laerm;67283;50.960;13.856;2023-09-07T18:39:10;58.67;36.59;70.78;;
78074;Laerm;67283;50.960;13.856;2023-09-07T18:41:35;57.33;30.85;70.72;;
78074;Laerm;67283;50.960;13.856;2023-09-07T18:44:01;51.42;30.82;68.35;;
78074;Laerm;67283;50.960;13.856;2023-09-07T18:46:27;49.24;30.49;66.07;;
78074;Laerm;67283;50.960;13.856;2023-09-07T18:48:53;35.56;30.58;55.32;;
78074;Laerm;67283;50.960;13.856;2023-09-07T18:51:18;55.54;31.05;69.98;;
78074;Laerm;67283;50.960;13.856;2023-09-07T18:53:44;62.65;30.75;80.14;;
78074;Laerm;67283;50.960;13.856;2023-09-07T18:56:10;33.29;30.71;42.34;;
78074;Laerm;67283;50.960;13.856;2023-09-07T18:58:36;47.14;30.71;65.21;;
78074;Laerm;67283;50.960;13.856;2023-09-07T19:01:11;31.54;30.44;43.55;;
78074;Laerm;67283;50.960;13.856;2023-09-07T19:03:37;51.98;30.38;67.70;;
78074;Laerm;67283;50.960;13.856;2023-09-07T19:06:03;54.35;31.17;70.13;;
78074;Laerm;67283;50.960;13.856;2023-09-07T19:08:29;52.19;30.36;68.47;;
78074;Laerm;67283;50.960;13.856;2023-09-07T19:10:55;32.47;30.48;54.09;;
78074;Laerm;67283;50.960;13.856;2023-09-07T19:13:20;52.11;30.71;70.10;;
78074;Laerm;67283;50.960;13.856;2023-09-07T19:15:46;57.23;29.95;71.08;;
78074;Laerm;67283;50.960;13.856;2023-09-07T19:18:11;52.48;29.96;70.95;;
78074;Laerm;67283;50.960;13.856;2023-09-07T19:20:40;57.48;30.28;75.06;;
78074;Laerm;67283;50.960;13.856;2023-09-07T19:23:05;54.29;30.14;69.28;;
78074;Laerm;67283;50.960;13.856;2023-09-07T19:25:31;56.21;29.86;67.59;;
78074;Laerm;67283;50.960;13.856;2023-09-07T19:27:57;49.81;29.91;70.85;;
78074;Laerm;67283;50.960;13.856;2023-09-07T19:30:23;51.38;29.56;68.38;;
78074;Laerm;67283;50.960;13.856;2023-09-07T19:32:49;56.17;31.94;68.73;;
78074;Laerm;67283;50.960;13.856;2023-09-07T19:35:14;33.53;29.64;56.27;;
78074;Laerm;67283;50.960;13.856;2023-09-07T19:37:40;54.85;29.72;68.87;;
78074;Laerm;67283;50.960;13.856;2023-09-07T19:40:05;51.54;29.59;68.55;;
78074;Laerm;67283;50.960;13.856;2023-09-07T19:42:31;59.52;29.97;77.25;;
78074;Laerm;67283;50.960;13.856;2023-09-07T19:44:56;31.34;29.55;54.07;;
78074;Laerm;67283;50.960;13.856;2023-09-07T19:47:22;50.97;29.62;65.37;;
78074;Laerm;67283;50.960;13.856;2023-09-07T19:49:48;36.56;29.51;52.87;;
78074;Laerm;67283;50.960;13.856;2023-09-07T19:52:13;46.67;29.31;64.55;;
78074;Laerm;67283;50.960;13.856;2023-09-07T19:54:38;42.83;29.33;60.69;;
78074;Laerm;67283;50.960;13.856;2023-09-07T19:57:04;33.59;29.57;49.30;;
78074;Laerm;67283;50.960;13.856;2023-09-07T19:59:29;47.71;29.26;66.49;;
78074;Laerm;67283;50.960;13.856;2023-09-07T20:01:55;29.94;29.28;34.03;;
78074;Laerm;67283;50.960;13.856;2023-09-07T20:04:22;29.91;29.27;33.01;;
78074;Laerm;67283;50.960;13.856;2023-09-07T20:06:47;54.60;29.92;69.99;;
78074;Laerm;67283;50.960;13.856;2023-09-07T20:09:13;31.58;29.52;44.31;;
78074;Laerm;67283;50.960;13.856;2023-09-07T20:11:42;54.67;30.03;68.68;;
78074;Laerm;67283;50.960;13.856;2023-09-07T20:14:07;47.49;29.86;66.43;;
78074;Laerm;67283;50.960;13.856;2023-09-07T20:16:32;54.55;29.74;73.52;;
78074;Laerm;67283;50.960;13.856;2023-09-07T20:18:58;55.94;30.09;69.68;;
78074;Laerm;67283;50.960;13.856;2023-09-07T20:21:23;49.93;29.79;66.74;;
78074;Laerm;67283;50.960;13.856;2023-09-07T20:23:48;51.23;29.94;69.20;;
78074;Laerm;67283;50.960;13.856;2023-09-07T20:26:14;57.33;30.01;71.29;;
78074;Laerm;67283;50.960;13.856;2023-09-07T20:28:39;57.89;30.52;68.61;;
78074;Laerm;67283;50.960;13.856;2023-09-07T20:31:09;51.91;29.94;67.00;;
78074;Laerm;67283;50.960;13.856;2023-09-07T20:33:35;55.94;30.11;75.50;;
78074;Laerm;67283;50.960;13.856;2023-09-07T20:36:00;52.89;29.97;68.66;;
78074;Laerm;67283;50.960;13.856;2023-09-07T20:38:27;31.08;29.39;40.24;;
78074;Laerm;67283;50.960;13.856;2023-09-07T20:40:53;30.33;29.51;33.53;;
78074;Laerm;67283;50.960;13.856;2023-09-07T20:43:18;52.45;29.64;68.61;;
78074;Laerm;67283;50.960;13.856;2023-09-07T20:45:50;53.69;29.60;69.44;;
78074;Laerm;67283;50.960;13.856;2023-09-07T20:48:16;30.52;29.65;38.42;;
78074;Laerm;67283;50.960;13.856;2023-09-07T20:50:44;52.29;29.76;67.94;;
78074;Laerm;67283;50.960;13.856;2023-09-07T20:53:10;30.39;29.53;34.77;;
78074;Laerm;67283;50.960;13.856;2023-09-07T20:55:36;31.52;29.54;38.29;;
78074;Laerm;67283;50.960;13.856;2023-09-07T20:58:01;54.14;29.89;69.38;;
78074;Laerm;67283;50.960;13.856;2023-09-07T21:00:28;34.11;29.55;57.95;;
78074;Laerm;67283;50.960;13.856;2023-09-07T21:02:53;31.46;29.55;52.19;;
78074;Laerm;67283;50.960;13.856;2023-09-07T21:05:18;31.39;29.76;46.04;;
78074;Laerm;67283;50.960;13.856;2023-09-07T21:07:44;31.71;29.49;52.64;;
78074;Laerm;67283;50.960;13.856;2023-09-07T21:10:09;30.94;29.53;51.05;;
78074;Laerm;67283;50.960;13.856;2023-09-07T21:12:38;30.45;29.49;36.13;;
78074;Laerm;67283;50.960;13.856;2023-09-07T21:15:05;53.42;29.92;70.37;;
78074;Laerm;67283;50.960;13.856;2023-09-07T21:17:30;30.62;29.58;44.06;;
78074;Laerm;67283;50.960;13.856;2023-09-07T21:19:55;30.69;29.57;40.13;;
78074;Laerm;67283;50.960;13.856;2023-09-07T21:22:21;30.45;29.54;34.11;;
78074;Laerm;67283;50.960;13.856;2023-09-07T21:24:47;30.48;29.49;36.00;;
78074;Laerm;67283;50.960;13.856;2023-09-07T21:27:12;30.51;29.37;43.66;;
78074;Laerm;67283;50.960;13.856;2023-09-07T21:29:38;31.55;29.36;56.26;;
78074;Laerm;67283;50.960;13.856;2023-09-07T21:32:03;55.21;29.77;70.77;;
78074;Laerm;67283;50.960;13.856;2023-09-07T21:34:28;31.18;29.69;46.19;;
78074;Laerm;67283;50.960;13.856;2023-09-07T21:36:54;30.94;29.73;41.01;;
78074;Laerm;67283;50.960;13.856;2023-09-07T21:39:19;30.80;29.54;45.37;;
78074;Laerm;67283;50.960;13.856;2023-09-07T21:41:49;30.94;29.55;46.17;;
78074;Laerm;67283;50.960;13.856;2023-09-07T21:44:15;51.62;29.24;68.19;;
78074;Laerm;67283;50.960;13.856;2023-09-07T21:46:41;32.38;29.56;55.69;;
78074;Laerm;67283;50.960;13.856;2023-09-07T21:49:07;31.07;29.40;47.74;;
78074;Laerm;67283;50.960;13.856;2023-09-07T21:51:33;31.51;29.66;53.86;;
78074;Laerm;67283;50.960;13.856;2023-09-07T21:53:58;31.58;29.73;45.97;;
78074;Laerm;67283;50.960;13.856;2023-09-07T21:56:25;31.90;29.63;52.59;;
78074;Laerm;67283;50.960;13.856;2023-09-07T21:58:51;31.38;29.66;46.87;;
78074;Laerm;67283;50.960;13.856;2023-09-07T22:01:16;36.49;29.86;49.83;;
78074;Laerm;67283;50.960;13.856;2023-09-07T22:03:42;49.66;29.77;60.85;;
78074;Laerm;67283;50.960;13.856;2023-09-07T22:06:08;30.92;29.63;47.45;;
78074;Laerm;67283;50.960;13.856;2023-09-07T22:08:33;51.62;29.55;69.32;;
78074;Laerm;67283;50.960;13.856;2023-09-07T22:10:58;30.62;29.45;34.11;;
78074;Laerm;67283;50.960;13.856;2023-09-07T22:13:24;31.62;29.38;48.04;;
78074;Laerm;67283;50.960;13.856;2023-09-07T22:15:49;58.09;29.72;75.90;;
78074;Laerm;67283;50.960;13.856;2023-09-07T22:18:15;31.21;29.71;46.50;;
78074;Laerm;67283;50.960;13.856;2023-09-07T22:20:40;32.37;29.18;53.69;;
78074;Laerm;67283;50.960;13.856;2023-09-07T22:23:06;31.35;29.44;48.37;;
78074;Laerm;67283;50.960;13.856;2023-09-07T22:25:32;30.04;29.17;39.21;;
78074;Laerm;67283;50.960;13.856;2023-09-07T22:27:57;30.45;29.54;34.77;;
78074;Laerm;67283;50.960;13.856;2023-09-07T22:30:23;32.18;29.46;56.50;;
78074;Laerm;67283;50.960;13.856;2023-09-07T22:32:48;31.41;29.49;52.11;;
78074;Laerm;67283;50.960;13.856;2023-09-07T22:35:14;32.38;29.61;51.88;;
78074;Laerm;67283;50.960;13.856;2023-09-07T22:37:39;30.61;29.47;44.61;;
78074;Laerm;67283;50.960;13.856;2023-09-07T22:40:05;30.46;29.60;35.57;;
78074;Laerm;67283;50.960;13.856;2023-09-07T22:42:30;50.93;29.80;68.78;;
78074;Laerm;67283;50.960;13.856;2023-09-07T22:44:56;30.33;29.34;31.96;;
78074;Laerm;67283;50.960;13.856;2023-09-07T22:47:21;30.59;29.65;37.04;;
78074;Laerm;67283;50.960;13.856;2023-09-07T22:49:47;30.84;29.46;51.39;;
78074;Laerm;67283;50.960;13.856;2023-09-07T22:52:12;31.62;29.32;54.07;;
78074;Laerm;67283;50.960;13.856;2023-09-07T22:54:38;30.20;29.42;40.61;;
78074;Laerm;67283;50.960;13.856;2023-09-07T22:57:03;32.57;29.22;57.22;;
78074;Laerm;67283;50.960;13.856;2023-09-07T22:59:29;57.68;29.31;76.26;;
78074;Laerm;67283;50.960;13.856;2023-09-07T23:01:54;30.24;29.43;32.52;;
78074;Laerm;67283;50.960;13.856;2023-09-07T23:04:20;30.64;29.69;33.82;;
78074;Laerm;67283;50.960;13.856;2023-09-07T23:06:45;30.66;29.63;42.28;;
78074;Laerm;67283;50.960;13.856;2023-09-07T23:09:10;30.30;29.45;34.50;;
78074;Laerm;67283;50.960;13.856;2023-09-07T23:11:36;30.66;29.33;43.70;;
78074;Laerm;67283;50.960;13.856;2023-09-07T23:14:01;31.74;29.32;53.50;;
78074;Laerm;67283;50.960;13.856;2023-09-07T23:16:27;50.22;29.35;67.35;;
78074;Laerm;67283;50.960;13.856;2023-09-07T23:18:53;30.09;29.07;31.22;;
78074;Laerm;67283;50.960;13.856;2023-09-07T23:21:18;30.27;29.31;32.68;;
78074;Laerm;67283;50.960;13.856;2023-09-07T23:23:43;57.37;30.04;71.43;;
78074;Laerm;67283;50.960;13.856;2023-09-07T23:26:09;30.74;29.50;35.50;;
78074;Laerm;67283;50.960;13.856;2023-09-07T23:28:37;30.96;29.65;45.64;;
78074;Laerm;67283;50.960;13.856;2023-09-07T23:31:02;30.64;29.30;34.06;;
78074;Laerm;67283;50.960;13.856;2023-09-07T23:33:28;30.33;29.17;32.85;;
78074;Laerm;67283;50.960;13.856;2023-09-07T23:35:53;30.20;29.21;34.26;;
78074;Laerm;67283;50.960;13.856;2023-09-07T23:38:19;30.39;29.45;32.18;;
78074;Laerm;67283;50.960;13.856;2023-09-07T23:40:44;30.57;29.60;37.19;;
78074;Laerm;67283;50.960;13.856;2023-09-07T23:43:10;30.30;29.23;41.34;;
78074;Laerm;67283;50.960;13.856;2023-09-07T23:45:35;30.69;29.56;45.46;;
78074;Laerm;67283;50.960;13.856;2023-09-07T23:48:01;31.26;29.80;52.83;;
78074;Laerm;67283;50.960;13.856;2023-09-07T23:50:26;30.56;29.41;38.23;;
78074;Laerm;67283;50.960;13.856;2023-09-07T23:52:51;29.98;29.21;35.54;;
78074;Laerm;67283;50.960;13.856;2023-09-07T23:55:17;29.79;29.16;30.44;;
78074;Laerm;67283;50.960;13.856;2023-09-07T23:57:42;30.08;29.15;32.48;;
